Terminal Aerodrome Forecast
Issued by NWS

Home | Current Version | Previous Version | Text Only | Print | Product List | Glossary On
Versions: 1 2 3 4 5 6 7 8 9 10 11 12 13 14 15 16 17 18 19 20 21 22 23 24 25 26 27
000
FTUS44 KLIX 271416 AAB
TAFMSY
TAF AMD
KMSY 271416Z 2714/2812 10010KT P6SM VCSH SCT015 BKN050 OVC250
      TEMPO 2715/2716 VRB40G50KT 1/2SM +TSRA BKN008CB OVC015
     FM271600 11014KT 4SM SHRA OVC025
     FM272300 06013KT 4SM SHRA OVC015
     FM280500 10012KT 6SM -SHRA OVC015=

USA.gov is the U.S. government's official web portal to all federal, state and local government web resources and services.